createdAt,value
2018-11-05T00:01:20.137Z,31.67
2018-11-05T00:03:26.031Z,31.20
2018-11-05T00:05:31.715Z,27.57
2018-11-05T00:07:37.551Z,24.33
2018-11-05T00:09:41.838Z,32.33
2018-11-05T00:11:46.708Z,27.77
2018-11-05T00:13:51.170Z,28.07
2018-11-05T00:15:55.786Z,28.10
2018-11-05T00:18:01.864Z,30.17
2018-11-05T00:20:08.910Z,30.90
2018-11-05T00:22:14.157Z,27.57
2018-11-05T00:24:19.257Z,31.97
2018-11-05T00:26:23.690Z,29.87
2018-11-05T00:28:29.999Z,26.80
2018-11-05T00:30:34.671Z,27.93
2018-11-05T00:32:39.269Z,27.67
2018-11-05T00:34:43.433Z,27.00
2018-11-05T00:37:00.717Z,21.20
2018-11-05T00:39:07.794Z,29.37
2018-11-05T00:41:17.034Z,30.03
2018-11-05T00:43:21.518Z,28.33
2018-11-05T00:45:27.995Z,24.90
2018-11-05T00:47:32.376Z,27.63
2018-11-05T00:49:38.862Z,28.87
2018-11-05T00:51:45.488Z,30.37
2018-11-05T00:53:53.751Z,24.57
2018-11-05T00:56:10.327Z,27.37
2018-11-05T00:58:19.198Z,26.20
2018-11-05T01:00:23.640Z,27.27
2018-11-05T01:02:35.821Z,31.03
2018-11-05T01:04:46.087Z,31.30
2018-11-05T01:06:53.966Z,30.17
2018-11-05T01:08:58.188Z,27.63
2018-11-05T01:11:02.442Z,29.17
2018-11-05T01:13:07.231Z,29.93
2018-11-05T01:15:13.357Z,29.10
2018-11-05T01:17:17.702Z,33.87
2018-11-05T01:19:21.972Z,31.17
2018-11-05T01:21:38.556Z,29.00
2018-11-05T01:23:42.806Z,23.53
2018-11-05T01:25:47.694Z,30.77
2018-11-05T01:27:51.838Z,19.63
2018-11-05T01:29:57.288Z,21.70
2018-11-05T01:32:02.084Z,27.60
2018-11-05T01:34:06.428Z,27.70
2018-11-05T01:36:14.607Z,20.90
2018-11-05T01:38:21.519Z,20.23
2018-11-05T01:40:36.474Z,19.43
2018-11-05T01:42:40.790Z,23.00
2018-11-05T01:44:44.992Z,23.17
2018-11-05T01:46:49.206Z,26.43
2018-11-05T01:48:53.454Z,30.87
2018-11-05T01:50:57.648Z,31.23
2018-11-05T01:53:01.937Z,25.07
2018-11-05T01:55:07.798Z,27.20
2018-11-05T01:57:12.008Z,27.03
2018-11-05T01:59:16.251Z,28.37
2018-11-05T02:01:20.564Z,29.27
2018-11-05T02:03:24.816Z,27.40
2018-11-05T02:05:29.066Z,27.73
2018-11-05T02:07:33.294Z,27.20
2018-11-05T02:09:38.588Z,22.50
2018-11-05T02:11:43.727Z,23.57
2018-11-05T02:13:47.882Z,29.17
2018-11-05T02:15:52.744Z,28.07
2018-11-05T02:17:57.002Z,16.13
2018-11-05T02:20:01.334Z,28.70
2018-11-05T02:22:05.923Z,26.27
2018-11-05T02:24:10.164Z,23.93
2018-11-05T02:26:14.379Z,24.23
2018-11-05T02:28:18.546Z,28.67
2018-11-05T02:30:22.736Z,31.53
2018-11-05T02:32:28.359Z,29.03
2018-11-05T02:34:32.938Z,30.50
2018-11-05T02:36:37.182Z,16.27
2018-11-05T02:38:41.503Z,20.77
2018-11-05T02:40:45.752Z,20.73
2018-11-05T02:42:50.582Z,27.60
2018-11-05T02:44:54.856Z,21.03
2018-11-05T02:47:06.830Z,24.93
2018-11-05T02:49:12.848Z,30.00
2018-11-05T02:51:17.125Z,27.27
2018-11-05T02:53:21.329Z,26.20
2018-11-05T02:55:25.479Z,24.00
2018-11-05T02:57:29.687Z,23.37
2018-11-05T02:59:34.030Z,31.37
2018-11-05T03:01:38.265Z,28.57
2018-11-05T03:03:42.798Z,31.87
2018-11-05T03:05:52.295Z,18.43
2018-11-05T03:07:56.661Z,31.10
2018-11-05T03:10:00.870Z,29.80
2018-11-05T03:12:08.067Z,27.40
2018-11-05T03:14:13.260Z,31.47
2018-11-05T03:16:17.438Z,20.97
2018-11-05T03:18:21.698Z,29.67
2018-11-05T03:20:26.003Z,29.30
2018-11-05T03:22:30.508Z,33.50
2018-11-05T03:24:41.843Z,29.07
2018-11-05T03:26:46.062Z,32.37
2018-11-05T03:28:50.339Z,29.90
2018-11-05T03:30:54.526Z,31.67
2018-11-05T03:32:58.783Z,31.20
2018-11-05T03:35:02.975Z,30.67
2018-11-05T03:37:07.704Z,23.30
2018-11-05T03:39:13.049Z,25.10
2018-11-05T03:41:17.464Z,31.57
2018-11-05T03:43:22.331Z,27.50
2018-11-05T03:45:27.107Z,31.57
2018-11-05T03:47:31.960Z,23.37
2018-11-05T03:49:36.831Z,24.40
2018-11-05T03:51:41.064Z,30.23
2018-11-05T03:53:45.635Z,29.70
2018-11-05T03:55:50.177Z,27.90
2018-11-05T03:57:55.058Z,31.07
2018-11-05T04:00:00.318Z,33.93
2018-11-05T04:02:04.821Z,33.57
2018-11-05T04:04:09.825Z,26.47
2018-11-05T04:06:14.422Z,30.37
2018-11-05T04:08:21.142Z,28.93
2018-11-05T04:10:25.813Z,31.33
2018-11-05T04:12:30.277Z,36.43
2018-11-05T04:14:34.489Z,35.10
2018-11-05T04:16:39.278Z,37.10
2018-11-05T04:18:45.296Z,32.37
2018-11-05T04:20:49.504Z,33.33
2018-11-05T04:22:54.048Z,34.10
2018-11-05T04:24:58.288Z,36.00
2018-11-05T04:27:02.574Z,34.93
2018-11-05T04:29:07.164Z,34.60
2018-11-05T04:31:11.390Z,35.43
2018-11-05T04:33:15.639Z,35.87
2018-11-05T04:35:19.919Z,35.87
2018-11-05T04:37:24.195Z,38.50
2018-11-05T04:39:28.378Z,31.10
2018-11-05T04:41:32.630Z,31.07
2018-11-05T04:43:36.812Z,37.90
2018-11-05T04:45:41.044Z,39.33
2018-11-05T04:47:45.255Z,35.30
2018-11-05T04:49:49.441Z,38.63
2018-11-05T04:51:53.651Z,40.10
2018-11-05T04:53:57.850Z,29.67
2018-11-05T04:56:02.074Z,35.80
2018-11-05T04:58:11.287Z,31.53
2018-11-05T05:00:16.663Z,36.80
2018-11-05T05:02:20.955Z,32.90
2018-11-05T05:04:25.434Z,34.97
2018-11-05T05:06:31.036Z,33.73
2018-11-05T05:08:36.206Z,35.37
2018-11-05T05:10:41.378Z,33.77
2018-11-05T05:12:46.683Z,34.93
2018-11-05T05:14:50.949Z,37.17
2018-11-05T05:16:55.221Z,37.60
2018-11-05T05:18:59.527Z,36.77
2018-11-05T05:21:03.730Z,34.13
2018-11-05T05:23:07.994Z,36.50
2018-11-05T05:25:12.180Z,33.10
2018-11-05T05:27:16.417Z,27.73
2018-11-05T05:29:20.646Z,39.10
2018-11-05T05:31:24.915Z,39.40
2018-11-05T05:33:29.148Z,37.37
2018-11-05T05:35:33.389Z,31.93
2018-11-05T05:37:37.618Z,35.20
2018-11-05T05:39:41.860Z,32.43
2018-11-05T05:41:46.087Z,30.90
2018-11-05T05:43:50.378Z,33.20
2018-11-05T05:45:54.616Z,36.27
2018-11-05T05:47:58.803Z,28.37
2018-11-05T05:50:03.113Z,38.57
2018-11-05T05:52:07.334Z,35.00
2018-11-05T05:54:11.586Z,41.27
2018-11-05T05:56:15.834Z,38.43
2018-11-05T05:58:20.054Z,42.27
2018-11-05T06:00:24.326Z,42.20
2018-11-05T06:02:28.579Z,35.37
2018-11-05T06:04:32.823Z,42.17
2018-11-05T06:06:37.136Z,39.47
2018-11-05T06:08:41.306Z,39.10
2018-11-05T06:10:45.537Z,39.73
2018-11-05T06:12:49.791Z,35.47
2018-11-05T06:14:54.223Z,41.30
2018-11-05T06:16:58.848Z,40.53
2018-11-05T06:19:04.925Z,42.23
2018-11-05T06:21:09.566Z,37.13
2018-11-05T06:23:14.402Z,35.37
2018-11-05T06:25:19.508Z,37.10
2018-11-05T06:27:23.705Z,39.43
2018-11-05T06:29:28.003Z,39.67
2018-11-05T06:31:32.212Z,38.00
2018-11-05T06:33:36.578Z,38.77
2018-11-05T06:35:40.759Z,40.40
2018-11-05T06:37:44.983Z,41.67
2018-11-05T06:39:49.221Z,42.90
2018-11-05T06:41:53.490Z,42.17
2018-11-05T06:43:57.725Z,38.33
2018-11-05T06:46:02.023Z,37.50
2018-11-05T06:48:06.449Z,37.97
2018-11-05T06:50:13.505Z,33.03
2018-11-05T06:52:17.731Z,36.50
2018-11-05T06:54:21.934Z,35.47
2018-11-05T06:56:26.233Z,33.17
2018-11-05T06:58:31.371Z,34.83
2018-11-05T07:00:35.564Z,32.80
2018-11-05T07:02:39.881Z,37.03
2018-11-05T07:04:44.215Z,37.60
2018-11-05T07:06:48.470Z,35.90
2018-11-05T07:08:52.739Z,34.57
2018-11-05T07:10:56.994Z,32.67
2018-11-05T07:13:01.247Z,35.87
2018-11-05T07:15:06.411Z,35.90
2018-11-05T07:17:10.713Z,35.00
2018-11-05T07:19:15.198Z,35.60
2018-11-05T07:21:19.459Z,36.47
2018-11-05T07:23:23.653Z,33.13
2018-11-05T07:25:27.875Z,32.33
2018-11-05T07:27:32.182Z,37.77
2018-11-05T07:29:36.513Z,35.00
2018-11-05T07:31:40.715Z,33.63
2018-11-05T07:33:45.057Z,37.77
2018-11-05T07:35:49.181Z,37.03
2018-11-05T07:37:56.698Z,33.00
2018-11-05T07:40:02.739Z,31.27
2018-11-05T07:42:07.014Z,37.20
2018-11-05T07:44:13.737Z,38.67
2018-11-05T07:46:18.382Z,33.87
2018-11-05T07:48:22.610Z,32.33
2018-11-05T07:50:26.912Z,36.27
2018-11-05T07:52:31.137Z,32.37
2018-11-05T07:54:35.364Z,26.33
2018-11-05T07:56:39.608Z,27.23
2018-11-05T07:58:43.835Z,30.30
2018-11-05T08:00:54.733Z,34.43
2018-11-05T08:02:59.079Z,36.73
2018-11-05T08:05:03.228Z,34.40
2018-11-05T08:07:07.492Z,35.37
2018-11-05T08:09:12.879Z,33.80
2018-11-05T08:11:17.119Z,35.33
2018-11-05T08:13:21.387Z,36.80
2018-11-05T08:15:26.472Z,32.90
2018-11-05T08:17:30.741Z,39.97
2018-11-05T08:19:35.187Z,33.13
2018-11-05T08:21:40.379Z,36.27
2018-11-05T08:23:45.297Z,32.17
2018-11-05T08:25:49.533Z,25.93
2018-11-05T08:27:55.024Z,29.57
2018-11-05T08:30:01.995Z,39.83
2018-11-05T08:32:06.227Z,35.50
2018-11-05T08:34:10.479Z,39.13
2018-11-05T08:36:14.691Z,41.67
2018-11-05T08:38:18.897Z,30.57
2018-11-05T08:40:25.378Z,32.20
2018-11-05T08:42:29.558Z,40.73
2018-11-05T08:44:33.795Z,39.77
2018-11-05T08:46:39.978Z,41.40
2018-11-05T08:48:44.167Z,39.40
2018-11-05T08:50:48.544Z,42.33
2018-11-05T08:52:52.704Z,43.57
2018-11-05T08:54:56.905Z,44.97
2018-11-05T08:57:01.154Z,39.43
2018-11-05T08:59:05.519Z,30.37
2018-11-05T09:01:14.813Z,42.37
2018-11-05T09:03:19.091Z,40.60
2018-11-05T09:05:23.601Z,37.57
2018-11-05T09:07:27.829Z,39.43
2018-11-05T09:09:32.050Z,39.57
2018-11-05T09:11:36.691Z,43.30
2018-11-05T09:13:40.663Z,41.63
2018-11-05T09:15:44.944Z,36.53
2018-11-05T09:17:49.650Z,31.77
2018-11-05T09:19:53.923Z,44.30
2018-11-05T09:21:59.112Z,45.50
2018-11-05T09:24:03.318Z,45.27
2018-11-05T09:26:07.975Z,40.33
2018-11-05T09:28:12.270Z,38.00
2018-11-05T09:30:18.822Z,36.00
2018-11-05T09:32:23.000Z,43.77
2018-11-05T09:34:29.296Z,47.53
2018-11-05T09:36:33.504Z,31.40
2018-11-05T09:38:37.771Z,34.20
2018-11-05T09:40:44.130Z,27.63
2018-11-05T09:42:48.661Z,39.47
2018-11-05T09:44:52.827Z,46.57
2018-11-05T09:46:57.161Z,47.27
2018-11-05T09:49:01.384Z,39.80
2018-11-05T09:51:05.672Z,46.73
2018-11-05T09:53:09.877Z,45.57
2018-11-05T09:55:15.657Z,45.73
2018-11-05T09:57:19.868Z,43.20
2018-11-05T09:59:24.067Z,46.13
2018-11-05T10:01:28.251Z,37.03
2018-11-05T10:03:37.805Z,30.87
2018-11-05T10:05:41.871Z,36.77
2018-11-05T10:07:46.953Z,25.13
2018-11-05T10:09:51.951Z,30.20
2018-11-05T10:11:56.146Z,43.70
2018-11-05T10:14:09.039Z,36.43
2018-11-05T10:16:13.352Z,31.80
2018-11-05T10:18:18.552Z,42.33
2018-11-05T10:20:24.941Z,42.23
2018-11-05T10:22:29.192Z,53.37
2018-11-05T10:24:33.429Z,39.57
2018-11-05T10:26:37.728Z,35.07
2018-11-05T10:28:41.959Z,35.37
2018-11-05T10:30:46.878Z,47.10
2018-11-05T10:32:51.124Z,44.10
2018-11-05T10:34:55.369Z,50.80
2018-11-05T10:36:59.615Z,40.70
2018-11-05T10:39:04.432Z,51.57
2018-11-05T10:41:08.694Z,51.63
2018-11-05T10:43:13.273Z,53.63
2018-11-05T10:45:21.702Z,55.43
2018-11-05T10:47:26.150Z,55.90
2018-11-05T10:49:31.201Z,56.73
2018-11-05T10:51:35.486Z,57.83
2018-11-05T10:53:39.669Z,49.47
2018-11-05T10:55:43.942Z,50.03
2018-11-05T10:57:48.605Z,51.53
2018-11-05T10:59:52.873Z,44.50
2018-11-05T11:02:02.050Z,42.30
2018-11-05T11:04:11.686Z,56.13
2018-11-05T11:06:15.973Z,43.67
2018-11-05T11:08:20.185Z,54.10
2018-11-05T11:10:25.260Z,50.97
2018-11-05T11:12:29.539Z,42.17
2018-11-05T11:14:33.709Z,52.90
2018-11-05T11:16:38.292Z,50.93
2018-11-05T11:18:42.555Z,52.43
2018-11-05T11:20:46.858Z,51.40
2018-11-05T11:23:08.192Z,43.90
2018-11-05T11:25:13.199Z,46.43
2018-11-05T11:27:24.594Z,39.33
2018-11-05T11:29:29.419Z,46.60
2018-11-05T11:31:35.502Z,46.37
2018-11-05T11:33:39.695Z,49.80
2018-11-05T11:35:43.896Z,48.77
2018-11-05T11:37:48.770Z,49.97
2018-11-05T11:39:53.524Z,37.50
2018-11-05T11:42:00.911Z,49.50
2018-11-05T11:44:05.421Z,49.23
2018-11-05T11:46:09.588Z,46.10
2018-11-05T11:48:17.191Z,51.30
2018-11-05T11:50:24.791Z,43.47
2018-11-05T11:52:30.024Z,44.50
2018-11-05T11:54:35.322Z,48.77
2018-11-05T11:56:48.423Z,45.50
2018-11-05T11:59:06.793Z,35.00
2018-11-05T12:01:12.910Z,49.03
2018-11-05T12:03:18.234Z,44.43
2018-11-05T12:05:24.698Z,50.07
2018-11-05T12:07:52.745Z,50.23
2018-11-05T12:09:57.013Z,42.90
2018-11-05T12:12:01.241Z,43.83
2018-11-05T12:14:06.237Z,48.30
2018-11-05T12:16:10.751Z,45.13
2018-11-05T12:18:15.028Z,38.30
2018-11-05T12:20:20.565Z,45.27
2018-11-05T12:22:26.895Z,43.93
2018-11-05T12:24:31.817Z,45.53
2018-11-05T12:26:37.252Z,38.50
2018-11-05T12:28:41.467Z,42.63
2018-11-05T12:30:45.728Z,42.67
2018-11-05T12:32:50.799Z,45.53
2018-11-05T12:34:55.031Z,44.53
2018-11-05T12:36:59.241Z,39.90
2018-11-05T12:39:03.857Z,48.63
2018-11-05T12:41:08.059Z,43.90
2018-11-05T12:43:12.410Z,42.70
2018-11-05T12:45:18.660Z,38.10
2018-11-05T12:47:22.914Z,43.13
2018-11-05T12:49:27.091Z,39.73
2018-11-05T12:51:31.353Z,38.73
2018-11-05T12:53:35.545Z,35.50
2018-11-05T12:55:39.807Z,43.23
2018-11-05T12:57:44.027Z,39.07
2018-11-05T12:59:48.250Z,41.33
2018-11-05T13:01:56.688Z,45.30
2018-11-05T13:04:00.985Z,43.37
2018-11-05T13:06:06.933Z,46.10
2018-11-05T13:08:12.118Z,45.60
2018-11-05T13:10:16.399Z,43.90
2018-11-05T13:12:21.671Z,37.23
2018-11-05T13:14:26.246Z,43.00
2018-11-05T13:16:31.286Z,44.57
2018-11-05T13:18:36.316Z,44.50
2018-11-05T13:20:40.528Z,41.80
2018-11-05T13:22:46.329Z,42.50
2018-11-05T13:24:50.615Z,43.07
2018-11-05T13:26:54.953Z,39.63
2018-11-05T13:28:59.215Z,37.50
2018-11-05T13:31:04.237Z,40.87
2018-11-05T13:33:09.795Z,36.10
2018-11-05T13:35:17.229Z,42.57
2018-11-05T13:37:44.069Z,44.40
2018-11-05T13:39:48.478Z,42.57
2018-11-05T13:41:52.707Z,45.77
2018-11-05T13:43:57.175Z,44.20
2018-11-05T13:46:01.713Z,43.23
2018-11-05T13:48:06.116Z,40.73
2018-11-05T13:50:11.483Z,44.63
2018-11-05T13:52:16.975Z,39.30
2018-11-05T13:54:21.615Z,44.13
2018-11-05T13:56:26.165Z,42.77
2018-11-05T13:58:31.470Z,45.47
2018-11-05T14:00:35.986Z,43.97
2018-11-05T14:02:40.471Z,43.93
2018-11-05T14:04:56.435Z,44.23
2018-11-05T14:07:05.219Z,46.93
2018-11-05T14:09:12.584Z,44.23
2018-11-05T14:11:20.052Z,42.43
2018-11-05T14:13:34.103Z,43.30
2018-11-05T14:18:04.299Z,42.50
2018-11-05T14:20:10.009Z,42.77
2018-11-05T14:22:15.224Z,37.30
2018-11-05T14:24:19.559Z,40.83
2018-11-05T14:26:23.855Z,42.53
2018-11-05T14:28:29.523Z,43.93
2018-11-05T14:30:33.923Z,41.37
2018-11-05T14:32:38.683Z,42.27
2018-11-05T14:34:43.498Z,43.93
2018-11-05T14:36:49.428Z,45.47
2018-11-05T14:38:53.576Z,41.13
2018-11-05T14:41:02.725Z,45.57
2018-11-05T14:43:28.261Z,43.47
2018-11-05T14:45:33.243Z,46.63
2018-11-05T14:47:37.588Z,41.27
2018-11-05T14:49:41.847Z,44.40
2018-11-05T14:51:56.004Z,44.43
2018-11-05T14:54:03.939Z,47.77
2018-11-05T14:56:09.786Z,40.07
2018-11-05T14:58:20.465Z,34.67
2018-11-05T15:00:26.165Z,43.47
2018-11-05T15:02:35.759Z,40.83
2018-11-05T15:04:40.627Z,43.17
2018-11-05T15:06:45.069Z,34.70
2018-11-05T15:08:49.973Z,35.20
2018-11-05T15:10:54.752Z,36.03
2018-11-05T15:12:59.711Z,29.87
2018-11-05T15:15:06.946Z,37.17
2018-11-05T15:19:38.216Z,35.37
2018-11-05T15:21:47.129Z,36.63
2018-11-05T15:23:53.124Z,41.10
2018-11-05T15:26:00.752Z,35.23
2018-11-05T15:28:08.011Z,38.17
2018-11-05T15:30:16.957Z,38.17
2018-11-05T15:32:21.511Z,32.43
2018-11-05T15:34:25.858Z,35.37
2018-11-05T15:36:31.164Z,36.80
2018-11-05T15:38:36.969Z,34.43
2018-11-05T15:40:42.631Z,36.30
2018-11-05T15:42:55.374Z,36.00
2018-11-05T15:45:02.527Z,34.23
2018-11-05T15:47:08.689Z,31.90
2018-11-05T15:49:13.173Z,31.37
2018-11-05T15:51:18.380Z,35.27
2018-11-05T15:53:23.620Z,35.97
2018-11-05T15:55:29.843Z,29.23
2018-11-05T15:57:34.723Z,37.23
2018-11-05T15:59:40.460Z,34.53
2018-11-05T16:01:44.661Z,35.37
2018-11-05T16:03:49.967Z,35.30
2018-11-05T16:06:01.087Z,37.70
2018-11-05T16:08:05.919Z,32.47
2018-11-05T16:10:10.142Z,35.93
2018-11-05T16:12:14.416Z,36.43
2018-11-05T16:14:19.113Z,38.27
2018-11-05T16:16:25.594Z,32.63
2018-11-05T16:18:31.789Z,29.70
2018-11-05T16:20:38.944Z,34.60
2018-11-05T16:22:44.296Z,31.90
2018-11-05T16:24:48.543Z,33.53
2018-11-05T16:26:52.851Z,30.70
2018-11-05T16:28:56.994Z,27.23
2018-11-05T16:31:01.283Z,35.93
2018-11-05T16:33:05.522Z,31.57
2018-11-05T16:35:09.806Z,35.63
2018-11-05T16:37:13.979Z,31.73
2018-11-05T16:39:18.276Z,35.90
2018-11-05T16:41:22.434Z,35.23
2018-11-05T16:43:26.691Z,26.57
2018-11-05T16:45:30.839Z,33.10
2018-11-05T16:47:35.088Z,23.70
2018-11-05T16:49:39.503Z,29.67
2018-11-05T16:51:45.898Z,31.30
2018-11-05T16:53:56.404Z,29.43
2018-11-05T16:56:01.595Z,31.37
2018-11-05T16:58:06.772Z,30.43
2018-11-05T17:00:11.644Z,27.87
2018-11-05T17:02:18.076Z,34.20
2018-11-05T17:04:22.827Z,28.03
2018-11-05T17:06:27.102Z,32.43
2018-11-05T17:08:31.345Z,33.17
2018-11-05T17:10:35.587Z,33.97
2018-11-05T17:12:40.041Z,34.90
2018-11-05T17:14:44.881Z,31.73
2018-11-05T17:16:50.296Z,31.67
2018-11-05T17:18:59.917Z,34.30
2018-11-05T17:21:04.157Z,29.80
2018-11-05T17:23:08.856Z,32.07
2018-11-05T17:25:16.147Z,34.00
2018-11-05T17:27:21.552Z,29.47
2018-11-05T17:29:28.037Z,29.93
2018-11-05T17:31:32.809Z,30.80
2018-11-05T17:33:45.828Z,31.17
2018-11-05T17:35:50.906Z,29.50
2018-11-05T17:37:55.046Z,32.37
2018-11-05T17:39:59.601Z,29.07
2018-11-05T17:42:04.361Z,34.03
2018-11-05T17:44:09.885Z,31.13
2018-11-05T17:46:14.175Z,28.50
2018-11-05T17:48:18.766Z,31.27
2018-11-05T17:50:27.583Z,27.53
2018-11-05T17:52:33.140Z,27.33
2018-11-05T18:01:54.790Z,32.03
2018-11-05T18:08:39.983Z,35.00
2018-11-05T18:10:45.655Z,23.43
2018-11-05T18:12:52.219Z,22.23
2018-11-05T18:15:20.227Z,23.07
2018-11-05T18:17:31.325Z,32.70
2018-11-05T18:24:27.158Z,33.30
2018-11-05T18:26:33.323Z,31.43
2018-11-05T18:28:44.078Z,23.30
2018-11-05T18:30:53.729Z,25.13
2018-11-05T18:35:33.811Z,31.73
2018-11-05T18:40:07.936Z,33.60
2018-11-05T18:42:13.418Z,30.83
2018-11-05T18:44:34.412Z,26.13
2018-11-05T18:46:40.753Z,21.87
2018-11-05T18:48:46.688Z,32.87
2018-11-05T18:50:51.338Z,33.30
2018-11-05T18:53:02.410Z,24.20
2018-11-05T18:55:10.305Z,23.67
2018-11-05T18:57:15.159Z,29.73
2018-11-05T18:59:22.132Z,31.47
2018-11-05T19:01:26.590Z,30.93
2018-11-05T19:03:31.770Z,34.27
2018-11-05T19:05:37.359Z,33.03
2018-11-05T19:07:58.422Z,23.87
2018-11-05T19:10:08.515Z,25.70
2018-11-05T19:12:13.786Z,25.77
2018-11-05T19:14:22.849Z,27.63
2018-11-05T19:16:27.394Z,32.90
2018-11-05T19:18:32.195Z,34.57
2018-11-05T19:20:56.350Z,29.43
2018-11-05T19:26:18.911Z,29.63
2018-11-05T19:28:22.845Z,24.37
2018-11-05T19:30:27.764Z,39.13
2018-11-05T19:32:32.440Z,25.27
2018-11-05T19:34:36.544Z,24.80
2018-11-05T19:36:48.703Z,23.40
2018-11-05T19:38:54.463Z,29.47
2018-11-05T19:40:58.405Z,37.77
2018-11-05T19:43:02.918Z,33.83
2018-11-05T19:45:09.170Z,36.03
2018-11-05T19:47:14.346Z,37.00
2018-11-05T19:49:18.298Z,38.70
2018-11-05T19:51:31.413Z,38.40
2018-11-05T19:53:35.482Z,37.60
2018-11-05T19:55:39.375Z,37.53
2018-11-05T19:57:44.892Z,28.60
2018-11-05T19:59:50.021Z,28.30
2018-11-05T20:01:54.130Z,37.83
2018-11-05T20:03:58.107Z,33.90
2018-11-05T20:06:02.105Z,31.50
2018-11-05T20:08:07.025Z,25.90
2018-11-05T20:10:13.315Z,36.80
2018-11-05T20:12:39.000Z,22.50
2018-11-05T20:14:45.929Z,35.83
2018-11-05T20:16:51.154Z,35.90
2018-11-05T20:18:55.943Z,32.37
2018-11-05T20:21:04.308Z,37.47
2018-11-05T20:23:48.648Z,31.73
2018-11-05T20:30:41.234Z,36.03
2018-11-05T20:32:53.364Z,35.33
2018-11-05T20:35:02.564Z,25.63
2018-11-05T20:41:58.711Z,34.53
2018-11-05T20:44:10.102Z,38.70
2018-11-05T20:46:26.980Z,35.27
2018-11-05T20:48:46.502Z,36.40
2018-11-05T20:50:51.561Z,25.10
2018-11-05T20:53:03.268Z,20.47
2018-11-05T20:55:08.344Z,19.93
2018-11-05T20:58:16.971Z,24.10
2018-11-05T21:00:35.020Z,27.70
2018-11-05T21:02:40.201Z,30.43
2018-11-05T21:04:46.551Z,31.70
2018-11-05T21:06:51.728Z,32.30
2018-11-05T21:09:20.766Z,36.00
2018-11-05T21:11:25.015Z,23.90
2018-11-05T21:13:31.181Z,26.70
2018-11-05T21:15:37.714Z,23.77
2018-11-05T21:17:42.353Z,35.70
2018-11-05T21:19:47.173Z,36.67
2018-11-05T21:21:51.512Z,37.43
2018-11-05T21:23:55.966Z,23.67
2018-11-05T21:26:03.463Z,22.53
2018-11-05T21:28:07.663Z,27.13
2018-11-05T21:30:14.540Z,27.73
2018-11-05T21:32:18.717Z,26.07
2018-11-05T21:34:22.909Z,21.40
2018-11-05T21:36:30.959Z,17.60
2018-11-05T21:38:35.294Z,25.00
2018-11-05T21:40:41.605Z,40.83
2018-11-05T21:42:46.091Z,24.53
2018-11-05T21:44:53.235Z,37.17
2018-11-05T21:46:58.346Z,34.93
2018-11-05T21:49:02.549Z,31.00
2018-11-05T21:51:07.743Z,31.77
2018-11-05T21:53:13.762Z,24.20
2018-11-05T21:55:19.585Z,31.07
2018-11-05T21:57:24.831Z,34.37
2018-11-05T21:59:30.472Z,38.00
2018-11-05T22:01:35.835Z,42.40
2018-11-05T22:03:40.873Z,40.50
2018-11-05T22:05:45.111Z,24.60
2018-11-05T22:08:04.233Z,26.87
2018-11-05T22:10:08.557Z,42.13
2018-11-05T22:12:12.885Z,28.07
2018-11-05T22:14:17.138Z,36.80
2018-11-05T22:16:21.552Z,31.83
2018-11-05T22:18:25.735Z,33.30
2018-11-05T22:20:29.954Z,21.50
2018-11-05T22:22:34.483Z,23.90
2018-11-05T22:24:40.074Z,38.57
2018-11-05T22:26:54.310Z,25.97
2018-11-05T22:29:05.679Z,29.90
2018-11-05T22:31:09.876Z,27.10
2018-11-05T22:33:17.894Z,31.13
2018-11-05T22:35:22.445Z,20.67
2018-11-05T22:37:28.686Z,33.37
2018-11-05T22:42:26.512Z,20.53
2018-11-05T22:44:34.572Z,26.03
2018-11-05T22:46:47.784Z,31.83
2018-11-05T22:56:09.158Z,28.30
2018-11-05T22:58:13.129Z,36.03
2018-11-05T23:00:23.066Z,39.00
2018-11-05T23:02:27.018Z,26.17
2018-11-05T23:04:33.128Z,35.53
2018-11-05T23:06:37.042Z,39.77
2018-11-05T23:08:41.462Z,39.20
2018-11-05T23:10:45.461Z,35.80
2018-11-05T23:12:49.913Z,40.87
2018-11-05T23:14:53.908Z,33.87
2018-11-05T23:16:57.861Z,40.73
2018-11-05T23:19:01.829Z,20.63
2018-11-05T23:21:06.320Z,31.53
2018-11-05T23:23:10.245Z,33.83
2018-11-05T23:25:15.267Z,21.33
2018-11-05T23:27:20.143Z,29.90
2018-11-05T23:29:24.952Z,25.20
2018-11-05T23:31:29.766Z,29.10
2018-11-05T23:33:34.968Z,26.60
2018-11-05T23:35:45.814Z,37.53
2018-11-05T23:37:50.622Z,23.53
2018-11-05T23:39:58.646Z,26.80
2018-11-05T23:42:04.811Z,22.70
2018-11-05T23:44:10.234Z,26.27
2018-11-05T23:46:14.478Z,23.93
2018-11-05T23:48:20.115Z,27.17
2018-11-05T23:50:27.127Z,27.00
2018-11-05T23:52:31.311Z,33.87
2018-11-05T23:54:35.801Z,23.23
2018-11-05T23:56:50.819Z,21.50
2018-11-05T23:59:04.179Z,35.93
